createdAt,value
2023-01-03T00:01:42.638Z,13.07
2023-01-03T00:04:12.532Z,13.00
2023-01-03T00:06:44.671Z,14.63
2023-01-03T00:09:16.745Z,11.48
2023-01-03T00:12:05.654Z,12.77
2023-01-03T00:14:36.489Z,12.60
2023-01-03T00:17:07.216Z,10.38
2023-01-03T00:19:38.483Z,10.38
2023-01-03T00:22:07.478Z,13.65
2023-01-03T00:24:37.405Z,10.70
2023-01-03T00:27:06.298Z,11.75
2023-01-03T00:29:35.313Z,10.95
2023-01-03T00:32:04.483Z,8.77
2023-01-03T00:34:32.949Z,9.45
2023-01-03T00:37:01.782Z,8.57
2023-01-03T00:39:30.327Z,8.77
2023-01-03T00:42:00.305Z,9.38
2023-01-03T00:44:29.001Z,8.48
2023-01-03T00:46:57.550Z,7.35
2023-01-03T00:49:27.220Z,7.75
2023-01-03T00:54:24.476Z,8.30
2023-01-03T00:56:54.259Z,7.30
2023-01-03T00:59:24.241Z,7.38
2023-01-03T01:01:56.967Z,6.60
2023-01-03T01:04:27.577Z,5.57
2023-01-03T01:06:58.482Z,7.38
2023-01-03T01:09:31.072Z,7.03
2023-01-03T01:11:59.995Z,8.73
2023-01-03T01:14:33.572Z,6.25
2023-01-03T01:17:04.023Z,5.82
2023-01-03T01:19:34.661Z,5.78
2023-01-03T01:22:03.574Z,5.22
2023-01-03T01:24:32.725Z,7.25
2023-01-03T01:27:01.360Z,6.38
2023-01-03T01:29:31.452Z,5.70
2023-01-03T01:31:59.978Z,5.82
2023-01-03T01:34:28.886Z,3.67
2023-01-03T01:36:57.758Z,4.88
2023-01-03T01:39:28.143Z,5.32
2023-01-03T01:42:19.821Z,5.18
2023-01-03T01:44:55.145Z,3.15
2023-01-03T01:47:36.091Z,2.80
2023-01-03T01:50:19.185Z,3.75
2023-01-03T01:52:52.035Z,4.47
2023-01-03T01:55:23.944Z,2.42
2023-01-03T01:57:53.719Z,2.40
2023-01-03T02:02:54.492Z,2.22
2023-01-03T02:05:26.907Z,3.20
2023-01-03T02:07:56.845Z,3.67
2023-01-03T02:10:37.122Z,3.17
2023-01-03T02:13:13.420Z,3.00
2023-01-03T02:16:13.383Z,2.72
2023-01-03T02:18:49.917Z,4.63
2023-01-03T02:21:49.107Z,3.83
2023-01-03T02:24:41.023Z,2.28
2023-01-03T02:27:29.390Z,2.72
2023-01-03T02:30:27.613Z,2.03
2023-01-03T02:33:02.782Z,2.92
2023-01-03T02:35:37.607Z,2.30
2023-01-03T02:38:14.269Z,3.33
2023-01-03T02:40:47.040Z,2.97
2023-01-03T02:43:22.706Z,1.88
2023-01-03T02:46:03.213Z,1.70
2023-01-03T02:48:39.307Z,1.98
2023-01-03T02:51:14.206Z,2.53
2023-01-03T02:53:46.309Z,1.48
2023-01-03T02:56:21.012Z,2.13
2023-01-03T02:58:53.606Z,2.72
2023-01-03T03:01:24.390Z,2.97
2023-01-03T03:03:54.238Z,3.33
2023-01-03T03:06:33.709Z,1.30
2023-01-03T03:09:02.410Z,2.42
2023-01-03T03:11:52.280Z,3.00
2023-01-03T03:14:25.199Z,1.73
2023-01-03T03:17:04.897Z,1.52
2023-01-03T03:19:52.246Z,2.50
2023-01-03T03:22:48.692Z,2.60
2023-01-03T03:25:22.634Z,2.55
2023-01-03T03:28:11.760Z,2.03
2023-01-03T03:30:44.530Z,1.00
2023-01-03T03:33:16.674Z,1.45
2023-01-03T03:35:50.739Z,1.25
2023-01-03T03:38:26.113Z,2.42
2023-01-03T03:41:18.205Z,2.42
2023-01-03T03:44:11.844Z,0.88
2023-01-03T03:46:54.219Z,6.55
2023-01-03T03:49:40.501Z,2.85
2023-01-03T03:52:14.186Z,2.55
2023-01-03T03:54:46.889Z,2.75
2023-01-03T03:57:23.451Z,3.05
2023-01-03T03:59:56.573Z,3.83
2023-01-03T04:02:27.422Z,0.85
2023-01-03T04:05:02.038Z,1.65
2023-01-03T04:07:30.820Z,1.17
2023-01-03T04:09:59.321Z,1.65
2023-01-03T04:12:27.979Z,3.22
2023-01-03T04:14:56.529Z,3.85
2023-01-03T04:17:25.105Z,3.20
2023-01-03T04:19:53.633Z,2.53
2023-01-03T04:22:24.053Z,1.85
2023-01-03T04:24:52.780Z,3.13
2023-01-03T04:27:21.355Z,0.75
2023-01-03T04:29:50.678Z,2.20
2023-01-03T04:32:19.269Z,2.25
2023-01-03T04:34:47.757Z,1.60
2023-01-03T04:37:16.444Z,2.80
2023-01-03T04:39:46.355Z,1.73
2023-01-03T04:42:32.593Z,3.03
2023-01-03T04:45:01.944Z,1.55
2023-01-03T04:47:30.541Z,0.90
2023-01-03T04:49:59.088Z,1.30
2023-01-03T04:52:27.663Z,1.02
2023-01-03T04:54:57.588Z,0.45
2023-01-03T04:57:26.137Z,2.65
2023-01-03T04:59:54.605Z,2.00
2023-01-03T05:02:23.149Z,3.65
2023-01-03T05:04:51.762Z,0.95
2023-01-03T05:07:20.276Z,1.75
2023-01-03T05:09:48.840Z,1.33
2023-01-03T05:12:18.755Z,4.70
2023-01-03T05:14:48.024Z,4.22
2023-01-03T05:17:16.550Z,2.67
2023-01-03T05:19:58.888Z,1.65
2023-01-03T05:22:44.795Z,2.50
2023-01-03T05:25:30.504Z,1.27
2023-01-03T05:28:01.580Z,2.13
2023-01-03T05:30:30.214Z,2.75
2023-01-03T05:32:59.664Z,1.90
2023-01-03T05:35:28.217Z,0.77
2023-01-03T05:37:56.745Z,0.65
2023-01-03T05:40:25.268Z,2.08
2023-01-03T05:42:53.791Z,2.50
2023-01-03T05:45:26.044Z,2.30
2023-01-03T05:47:54.551Z,4.90
2023-01-03T05:50:23.072Z,2.45
2023-01-03T05:52:51.848Z,2.20
2023-01-03T05:55:20.392Z,2.72
2023-01-03T05:57:48.919Z,3.20
2023-01-03T06:00:17.885Z,0.98
2023-01-03T06:02:47.985Z,0.88
2023-01-03T06:05:16.736Z,2.85
2023-01-03T06:07:45.237Z,3.58
2023-01-03T06:10:13.780Z,1.73
2023-01-03T06:12:42.276Z,1.90
2023-01-03T06:15:11.500Z,1.88
2023-01-03T06:18:02.543Z,1.70
2023-01-03T06:20:32.864Z,4.30
2023-01-03T06:23:01.409Z,2.45
2023-01-03T06:25:29.906Z,1.52
2023-01-03T06:27:58.377Z,5.07
2023-01-03T06:30:26.922Z,2.38
2023-01-03T06:32:55.481Z,1.95
2023-01-03T06:35:23.981Z,2.65
2023-01-03T06:37:53.897Z,1.23
2023-01-03T06:40:22.416Z,6.70
2023-01-03T06:42:50.915Z,3.67
2023-01-03T06:45:36.763Z,1.90
2023-01-03T06:48:23.985Z,4.60
2023-01-03T06:51:10.207Z,1.80
2023-01-03T06:53:43.485Z,1.33
2023-01-03T06:56:12.449Z,0.43
2023-01-03T06:58:42.445Z,1.92
2023-01-03T07:01:11.175Z,2.88
2023-01-03T07:03:39.786Z,2.73
2023-01-03T07:06:08.314Z,3.53
2023-01-03T07:08:37.004Z,0.95
2023-01-03T07:11:08.509Z,1.92
2023-01-03T07:13:54.323Z,2.72
2023-01-03T07:16:22.950Z,2.85
2023-01-03T07:18:55.390Z,1.45
2023-01-03T07:21:25.417Z,1.48
2023-01-03T07:23:54.928Z,2.22
2023-01-03T07:26:25.688Z,2.28
2023-01-03T07:28:54.231Z,1.30
2023-01-03T07:31:23.124Z,2.58
2023-01-03T07:33:53.194Z,2.70
2023-01-03T07:36:23.105Z,1.20
2023-01-03T07:38:51.922Z,3.20
2023-01-03T07:41:20.438Z,1.53
2023-01-03T07:43:50.051Z,0.65
2023-01-03T07:48:49.576Z,3.88
2023-01-03T07:51:21.591Z,3.10
2023-01-03T07:53:51.565Z,2.85
2023-01-03T07:56:21.626Z,3.30
2023-01-03T07:58:52.126Z,1.65
2023-01-03T08:01:22.555Z,2.38
2023-01-03T08:03:52.796Z,1.70
2023-01-03T08:06:23.496Z,2.78
2023-01-03T08:09:06.729Z,1.15
2023-01-03T08:11:52.853Z,1.33
2023-01-03T08:14:26.113Z,2.28
2023-01-03T08:16:56.334Z,3.28
2023-01-03T08:19:25.671Z,3.05
2023-01-03T08:21:54.380Z,0.90
2023-01-03T08:24:23.112Z,1.77
2023-01-03T08:26:51.734Z,0.80
2023-01-03T08:29:22.886Z,2.00
2023-01-03T08:31:55.442Z,0.85
2023-01-03T08:34:29.416Z,2.50
2023-01-03T08:37:02.580Z,2.80
2023-01-03T08:39:36.677Z,2.55
2023-01-03T08:42:08.727Z,2.38
2023-01-03T08:44:39.938Z,2.05
2023-01-03T08:47:10.958Z,3.03
2023-01-03T08:49:40.532Z,4.28
2023-01-03T08:52:09.392Z,3.30
2023-01-03T08:54:39.351Z,2.13
2023-01-03T08:57:07.941Z,7.85
2023-01-03T08:59:36.594Z,2.90
2023-01-03T09:02:07.037Z,1.05
2023-01-03T09:04:35.772Z,1.42
2023-01-03T09:07:04.290Z,4.72
2023-01-03T09:09:33.042Z,1.55
2023-01-03T09:12:01.536Z,2.38
2023-01-03T09:14:31.866Z,1.88
2023-01-03T09:17:00.563Z,3.05
2023-01-03T09:19:31.591Z,1.83
2023-01-03T09:22:00.188Z,3.00
2023-01-03T09:24:28.819Z,2.78
2023-01-03T09:26:57.421Z,2.95
2023-01-03T09:29:27.020Z,4.47
2023-01-03T09:31:55.572Z,4.15
2023-01-03T09:34:24.282Z,2.65
2023-01-03T09:36:54.177Z,4.50
2023-01-03T09:39:22.920Z,2.85
2023-01-03T09:42:12.169Z,6.03
2023-01-03T09:44:41.579Z,2.13
2023-01-03T09:47:20.072Z,4.47
2023-01-03T09:50:18.773Z,2.33
2023-01-03T09:52:59.077Z,5.05
2023-01-03T09:55:49.346Z,4.93
2023-01-03T09:58:35.419Z,2.70
2023-01-03T10:01:36.967Z,6.45
2023-01-03T10:04:21.301Z,2.85
2023-01-03T10:07:05.420Z,2.63
2023-01-03T10:09:45.097Z,2.95
2023-01-03T10:12:22.681Z,3.13
2023-01-03T10:15:10.925Z,5.05
2023-01-03T10:17:46.699Z,4.38
2023-01-03T10:20:32.941Z,4.18
2023-01-03T10:23:02.788Z,2.90
2023-01-03T10:25:32.771Z,2.25
2023-01-03T10:28:05.974Z,1.42
2023-01-03T10:30:50.745Z,1.95
2023-01-03T10:33:34.668Z,2.45
2023-01-03T10:36:03.574Z,1.60
2023-01-03T10:38:37.137Z,1.25
2023-01-03T10:41:19.240Z,1.23
2023-01-03T10:43:58.269Z,2.83
2023-01-03T10:46:28.390Z,4.72
2023-01-03T10:49:28.434Z,2.22
2023-01-03T10:52:02.240Z,1.85
2023-01-03T10:54:37.289Z,4.07
2023-01-03T10:57:08.602Z,3.90
2023-01-03T10:59:37.468Z,2.40
2023-01-03T11:02:20.426Z,3.97
2023-01-03T11:04:49.050Z,3.35
2023-01-03T11:07:17.719Z,2.00
2023-01-03T11:09:52.067Z,3.08
2023-01-03T11:12:30.080Z,2.85
2023-01-03T11:15:01.222Z,2.53
2023-01-03T11:17:31.076Z,3.95
2023-01-03T11:19:59.760Z,3.80
2023-01-03T11:22:38.977Z,3.20
2023-01-03T11:25:33.411Z,4.72
2023-01-03T11:28:27.527Z,3.65
2023-01-03T11:31:03.957Z,3.22
2023-01-03T11:33:43.739Z,3.10
2023-01-03T11:36:25.550Z,1.65
2023-01-03T11:39:04.854Z,6.57
2023-01-03T11:41:57.735Z,5.03
2023-01-03T11:44:57.511Z,4.13
2023-01-03T11:50:15.532Z,3.70
2023-01-03T11:52:52.963Z,2.53
2023-01-03T11:55:38.203Z,3.78
2023-01-03T11:58:29.008Z,2.53
2023-01-03T12:01:09.352Z,3.22
2023-01-03T12:03:56.295Z,2.65
2023-01-03T12:06:32.005Z,4.38
2023-01-03T12:09:14.550Z,2.10
2023-01-03T12:12:01.530Z,6.30
2023-01-03T12:14:37.173Z,3.40
2023-01-03T12:17:11.912Z,4.97
2023-01-03T12:19:45.251Z,2.28
2023-01-03T12:22:19.571Z,4.93
2023-01-03T12:24:52.069Z,3.50
2023-01-03T12:27:29.283Z,2.25
2023-01-03T12:30:04.491Z,2.67
2023-01-03T12:32:44.016Z,6.15
2023-01-03T12:35:29.401Z,3.20
2023-01-03T12:37:59.572Z,1.40
2023-01-03T12:40:35.576Z,1.20
2023-01-03T12:43:12.196Z,5.40
2023-01-03T12:45:47.175Z,7.70
2023-01-03T12:48:46.914Z,2.53
2023-01-03T12:53:51.671Z,2.00
2023-01-03T12:56:36.162Z,2.38
2023-01-03T12:59:15.650Z,3.38
2023-01-03T13:01:47.550Z,2.13
2023-01-03T13:04:24.040Z,2.15
2023-01-03T13:06:58.156Z,3.80
2023-01-03T13:09:32.353Z,3.03
2023-01-03T13:12:06.770Z,2.90
2023-01-03T13:14:53.550Z,6.60
2023-01-03T13:17:23.252Z,3.45
2023-01-03T13:22:52.015Z,3.63
2023-01-03T13:25:34.085Z,4.15
2023-01-03T13:28:06.491Z,2.08
2023-01-03T13:30:38.385Z,4.38
2023-01-03T13:33:19.235Z,3.17
2023-01-03T13:36:00.993Z,4.82
2023-01-03T13:38:32.871Z,3.92
2023-01-03T13:41:19.476Z,4.25
2023-01-03T13:43:51.565Z,7.00
2023-01-03T13:46:24.251Z,6.07
2023-01-03T13:48:56.523Z,1.77
2023-01-03T13:51:54.415Z,8.38
2023-01-03T13:54:38.032Z,9.57
2023-01-03T13:57:23.348Z,5.18
2023-01-03T13:59:52.413Z,5.25
2023-01-03T14:02:54.833Z,2.38
2023-01-03T14:05:58.985Z,3.30
2023-01-03T14:08:44.701Z,1.63
2023-01-03T14:11:35.590Z,6.35
2023-01-03T14:14:08.089Z,3.03
2023-01-03T14:16:47.351Z,4.90
2023-01-03T14:19:21.827Z,14.02
2023-01-03T14:21:55.839Z,4.38
2023-01-03T14:24:28.326Z,4.95
2023-01-03T14:27:04.417Z,3.90
2023-01-03T14:29:35.568Z,6.80
2023-01-03T14:32:04.354Z,4.35
2023-01-03T14:34:35.812Z,10.75
2023-01-03T14:37:08.225Z,3.67
2023-01-03T14:42:07.002Z,5.40
2023-01-03T14:44:36.282Z,4.03
2023-01-03T14:47:08.684Z,4.22
2023-01-03T14:49:46.595Z,8.10
2023-01-03T14:52:20.170Z,6.43
2023-01-03T14:54:54.484Z,4.35
2023-01-03T14:57:28.122Z,4.57
2023-01-03T14:59:59.591Z,5.05
2023-01-03T15:02:32.445Z,10.73
2023-01-03T15:05:04.050Z,7.20
2023-01-03T15:07:35.665Z,4.45
2023-01-03T15:10:17.224Z,4.45
2023-01-03T15:12:49.724Z,3.90
2023-01-03T15:15:27.168Z,4.30
2023-01-03T15:17:59.916Z,7.22
2023-01-03T15:20:36.171Z,5.53
2023-01-03T15:23:05.574Z,8.07
2023-01-03T15:25:38.944Z,6.85
2023-01-03T15:28:26.679Z,7.90
2023-01-03T15:30:56.606Z,4.60
2023-01-03T15:33:33.667Z,3.80
2023-01-03T15:36:06.385Z,5.22
2023-01-03T15:38:37.561Z,5.63
2023-01-03T15:41:17.520Z,4.57
2023-01-03T15:43:45.132Z,5.57
2023-01-03T15:46:17.613Z,6.95
2023-01-03T15:48:53.869Z,6.75
2023-01-03T15:51:22.904Z,6.88
2023-01-03T15:53:51.566Z,14.60
2023-01-03T15:56:24.374Z,8.55
2023-01-03T15:58:57.174Z,5.18
2023-01-03T16:01:26.888Z,8.93
2023-01-03T16:06:25.092Z,5.60
2023-01-03T16:08:54.837Z,5.80
2023-01-03T16:14:05.756Z,6.07
2023-01-03T16:16:39.129Z,7.10
2023-01-03T16:19:14.807Z,4.60
2023-01-03T16:21:56.534Z,4.32
2023-01-03T16:24:33.053Z,6.10
2023-01-03T16:27:12.839Z,3.40
2023-01-03T16:32:19.206Z,5.00
2023-01-03T16:34:49.037Z,6.55
2023-01-03T16:39:48.632Z,7.07
2023-01-03T16:42:21.545Z,6.20
2023-01-03T16:44:50.719Z,3.30
2023-01-03T16:47:23.418Z,5.22
2023-01-03T16:49:55.784Z,4.35
2023-01-03T16:52:28.623Z,3.53
2023-01-03T16:54:57.340Z,4.72
2023-01-03T16:57:28.541Z,3.47
2023-01-03T16:59:57.422Z,5.90
2023-01-03T17:02:26.175Z,6.70
2023-01-03T17:04:54.865Z,7.63
2023-01-03T17:07:25.531Z,8.80
2023-01-03T17:09:54.352Z,4.13
2023-01-03T17:12:25.085Z,5.77
2023-01-03T17:14:55.088Z,10.93
2023-01-03T17:17:24.569Z,2.40
2023-01-03T17:20:08.490Z,4.82
2023-01-03T17:22:37.166Z,2.28
2023-01-03T17:25:06.111Z,4.72
2023-01-03T17:27:34.851Z,6.13
2023-01-03T17:30:07.876Z,4.25
2023-01-03T17:32:36.507Z,6.32
2023-01-03T17:35:05.404Z,2.55
2023-01-03T17:37:57.768Z,4.53
2023-01-03T17:40:33.295Z,3.53
2023-01-03T17:43:03.062Z,3.65
2023-01-03T17:45:50.323Z,3.07
2023-01-03T17:48:36.601Z,5.88
2023-01-03T17:51:05.594Z,3.65
2023-01-03T17:53:34.163Z,3.63
2023-01-03T17:56:02.739Z,5.75
2023-01-03T17:58:35.462Z,7.35
2023-01-03T18:01:08.512Z,4.47
2023-01-03T18:03:38.494Z,3.95
2023-01-03T18:08:37.380Z,2.90
2023-01-03T18:11:07.732Z,3.50
2023-01-03T18:13:38.320Z,6.80
2023-01-03T18:16:13.280Z,3.10
2023-01-03T18:18:42.019Z,4.40
2023-01-03T18:21:18.169Z,4.38
2023-01-03T18:23:47.150Z,3.53
2023-01-03T18:26:17.470Z,4.47
2023-01-03T18:28:46.374Z,2.25
2023-01-03T18:31:20.103Z,2.78
2023-01-03T18:33:48.633Z,2.83
2023-01-03T18:36:26.563Z,4.47
2023-01-03T18:39:03.488Z,5.13
2023-01-03T18:41:34.347Z,5.00
2023-01-03T18:44:03.147Z,4.93
2023-01-03T18:46:33.133Z,1.38
2023-01-03T18:49:01.878Z,5.00
2023-01-03T18:51:30.630Z,9.55
2023-01-03T18:54:00.748Z,4.20
2023-01-03T18:56:32.739Z,1.98
2023-01-03T18:59:04.539Z,1.85
2023-01-03T19:01:34.881Z,3.72
2023-01-03T19:04:03.839Z,6.30
2023-01-03T19:06:34.061Z,3.63
2023-01-03T19:09:05.234Z,5.25
2023-01-03T19:11:37.958Z,3.35
2023-01-03T19:14:06.530Z,3.30
2023-01-03T19:16:39.072Z,4.65
2023-01-03T19:19:08.850Z,7.07
2023-01-03T19:24:18.149Z,4.78
2023-01-03T19:29:23.097Z,2.80
2023-01-03T19:31:55.465Z,2.97
2023-01-03T19:34:25.495Z,3.60
2023-01-03T19:36:54.450Z,3.45
2023-01-03T19:39:25.637Z,5.50
2023-01-03T19:42:15.654Z,2.30
2023-01-03T19:44:44.679Z,1.50
2023-01-03T19:47:17.294Z,5.72
2023-01-03T19:49:47.938Z,2.70
2023-01-03T19:52:16.852Z,6.20
2023-01-03T19:54:45.834Z,1.90
2023-01-03T19:57:22.952Z,4.13
2023-01-03T19:59:54.813Z,4.72
2023-01-03T20:02:39.500Z,3.60
2023-01-03T20:05:16.052Z,1.98
2023-01-03T20:07:45.324Z,5.93
2023-01-03T20:10:19.054Z,3.00
2023-01-03T20:12:48.843Z,4.50
2023-01-03T20:17:49.303Z,6.35
2023-01-03T20:20:18.140Z,2.58
2023-01-03T20:23:05.674Z,4.10
2023-01-03T20:25:37.226Z,3.25
2023-01-03T20:28:06.494Z,2.78
2023-01-03T20:30:36.062Z,2.70
2023-01-03T20:33:06.165Z,5.72
2023-01-03T20:38:27.255Z,3.13
2023-01-03T20:40:58.175Z,7.50
2023-01-03T20:43:27.727Z,4.53
2023-01-03T20:45:58.418Z,4.22
2023-01-03T20:48:29.076Z,4.32
2023-01-03T20:50:58.271Z,3.33
2023-01-03T20:53:28.432Z,3.33
2023-01-03T20:55:57.157Z,3.20
2023-01-03T20:58:27.861Z,5.68
2023-01-03T21:01:04.249Z,2.25
2023-01-03T21:03:36.402Z,1.98
2023-01-03T21:06:13.911Z,3.30
2023-01-03T21:08:58.186Z,6.47
2023-01-03T21:11:29.226Z,5.60
2023-01-03T21:13:59.041Z,3.45
2023-01-03T21:16:32.428Z,5.13
2023-01-03T21:19:14.117Z,5.70
2023-01-03T21:21:43.805Z,4.90
2023-01-03T21:26:41.051Z,2.13
2023-01-03T21:29:10.086Z,2.20
2023-01-03T21:31:40.090Z,5.13
2023-01-03T21:34:16.937Z,6.70
2023-01-03T21:36:45.630Z,5.28
2023-01-03T21:39:14.485Z,3.70
2023-01-03T21:41:56.866Z,3.27
2023-01-03T21:44:25.396Z,4.10
2023-01-03T21:46:53.919Z,4.22
2023-01-03T21:49:23.908Z,6.30
2023-01-03T21:51:52.634Z,3.40
2023-01-03T21:54:22.648Z,3.00
2023-01-03T21:56:51.331Z,3.65
2023-01-03T21:59:20.137Z,2.33
2023-01-03T22:02:06.544Z,3.27
2023-01-03T22:04:36.902Z,2.13
2023-01-03T22:07:05.556Z,3.85
2023-01-03T22:09:51.930Z,2.38
2023-01-03T22:12:21.269Z,4.25
2023-01-03T22:14:49.841Z,2.00
2023-01-03T22:17:18.465Z,6.43
2023-01-03T22:19:48.476Z,4.03
2023-01-03T22:22:17.011Z,2.63
2023-01-03T22:24:45.493Z,3.65
2023-01-03T22:27:14.865Z,4.05
2023-01-03T22:29:43.836Z,3.05
2023-01-03T22:32:12.452Z,1.27
2023-01-03T22:34:41.971Z,2.53
2023-01-03T22:37:11.920Z,3.75
2023-01-03T22:39:40.607Z,3.47
2023-01-03T22:42:09.967Z,5.03
2023-01-03T22:44:40.844Z,3.28
2023-01-03T22:47:09.632Z,5.70
2023-01-03T22:49:38.457Z,6.63
2023-01-03T22:52:07.426Z,3.00
2023-01-03T22:54:37.562Z,6.35
2023-01-03T22:57:06.181Z,4.10
2023-01-03T22:59:35.187Z,1.95
2023-01-03T23:02:03.942Z,3.85
2023-01-03T23:04:32.714Z,3.83
2023-01-03T23:07:01.344Z,6.93
2023-01-03T23:09:30.071Z,3.78
2023-01-03T23:12:17.612Z,3.15
2023-01-03T23:14:46.276Z,5.53
2023-01-03T23:17:31.880Z,2.65
2023-01-03T23:20:00.562Z,4.53
2023-01-03T23:22:29.057Z,2.13
2023-01-03T23:24:58.960Z,3.97
2023-01-03T23:27:29.019Z,1.80
2023-01-03T23:29:57.549Z,5.10
2023-01-03T23:32:27.144Z,3.90
2023-01-03T23:34:55.718Z,2.92
2023-01-03T23:37:24.450Z,7.97
2023-01-03T23:39:53.202Z,4.00
2023-01-03T23:42:21.720Z,5.93
2023-01-03T23:44:51.975Z,7.32
2023-01-03T23:47:20.474Z,3.08
2023-01-03T23:49:49.150Z,4.72
2023-01-03T23:52:17.713Z,3.10
2023-01-03T23:54:46.208Z,6.20
2023-01-03T23:57:14.804Z,10.02
2023-01-03T23:59:43.383Z,14.20
